createdAt,value
2018-03-11T00:01:35.928Z,5.57
2018-03-11T00:04:06.366Z,5.80
2018-03-11T00:06:36.435Z,5.57
2018-03-11T00:09:14.020Z,5.50
2018-03-11T00:11:44.549Z,5.03
2018-03-11T00:14:14.617Z,5.03
2018-03-11T00:16:51.863Z,4.57
2018-03-11T00:19:22.081Z,5.07
2018-03-11T00:21:55.664Z,4.37
2018-03-11T00:24:30.652Z,4.30
2018-03-11T00:27:02.105Z,4.30
2018-03-11T00:29:32.176Z,3.80
2018-03-11T00:32:02.208Z,4.10
2018-03-11T00:34:32.988Z,3.70
2018-03-11T00:37:03.033Z,3.70
2018-03-11T00:39:40.263Z,3.13
2018-03-11T00:42:14.516Z,3.27
2018-03-11T00:44:45.141Z,3.57
2018-03-11T00:47:15.215Z,3.03
2018-03-11T00:49:45.271Z,2.50
2018-03-11T00:52:16.970Z,2.07
2018-03-11T00:54:47.030Z,2.20
2018-03-11T00:57:17.357Z,2.07
2018-03-11T00:59:47.551Z,2.50
2018-03-11T01:02:17.599Z,2.90
2018-03-11T01:04:47.654Z,2.80
2018-03-11T01:07:18.598Z,3.27
2018-03-11T01:09:48.631Z,3.70
2018-03-11T01:12:18.712Z,4.40
2018-03-11T01:14:48.389Z,4.20
2018-03-11T01:17:18.638Z,4.07
2018-03-11T01:19:48.709Z,4.10
2018-03-11T01:22:18.777Z,4.33
2018-03-11T01:24:48.813Z,4.93
2018-03-11T01:27:26.111Z,4.30
2018-03-11T01:29:59.559Z,3.87
2018-03-11T01:32:30.409Z,4.80
2018-03-11T01:35:00.704Z,3.93
2018-03-11T01:37:43.034Z,3.40
2018-03-11T01:40:16.648Z,3.83
2018-03-11T01:42:48.775Z,3.33
2018-03-11T01:45:19.129Z,3.50
2018-03-11T01:47:52.393Z,3.80
2018-03-11T01:50:26.952Z,3.30
2018-03-11T01:53:08.863Z,3.07
2018-03-11T01:55:39.120Z,2.83
2018-03-11T01:58:10.139Z,2.57
2018-03-11T02:00:40.820Z,2.80
2018-03-11T02:03:11.657Z,2.87
2018-03-11T02:05:42.370Z,2.50
2018-03-11T02:08:19.412Z,2.47
2018-03-11T02:10:52.782Z,2.40
2018-03-11T02:13:31.374Z,2.70
2018-03-11T02:16:01.447Z,2.07
2018-03-11T02:18:31.491Z,2.13
2018-03-11T02:21:04.827Z,2.20
2018-03-11T02:23:36.118Z,2.60
2018-03-11T02:26:06.333Z,1.83
2018-03-11T02:28:39.224Z,2.00
2018-03-11T02:31:11.803Z,1.80
2018-03-11T02:33:44.069Z,2.20
2018-03-11T02:36:14.111Z,2.10
2018-03-11T02:38:45.085Z,1.87
2018-03-11T02:41:15.102Z,1.97
2018-03-11T02:43:45.423Z,1.93
2018-03-11T02:46:16.432Z,2.13
2018-03-11T02:48:46.460Z,1.80
2018-03-11T02:51:16.705Z,2.10
2018-03-11T02:53:46.735Z,1.73
2018-03-11T02:56:16.786Z,1.93
2018-03-11T02:58:46.815Z,1.60
2018-03-11T03:01:16.751Z,1.70
2018-03-11T03:03:46.825Z,1.50
2018-03-11T03:06:17.137Z,2.00
2018-03-11T03:08:47.337Z,1.77
2018-03-11T03:11:17.371Z,1.60
2018-03-11T03:13:48.146Z,1.87
2018-03-11T03:16:19.056Z,1.57
2018-03-11T03:18:49.303Z,1.80
2018-03-11T03:21:19.565Z,1.53
2018-03-11T03:23:49.877Z,1.60
2018-03-11T03:26:20.128Z,1.47
2018-03-11T03:28:49.650Z,1.50
2018-03-11T03:31:20.994Z,1.67
2018-03-11T03:33:51.997Z,1.50
2018-03-11T03:36:23.284Z,1.20
2018-03-11T03:38:54.604Z,1.27
2018-03-11T03:41:24.295Z,1.70
2018-03-11T03:43:54.302Z,1.50
2018-03-11T03:46:24.544Z,1.27
2018-03-11T03:48:54.854Z,1.50
2018-03-11T03:51:25.116Z,1.33
2018-03-11T03:53:55.919Z,1.30
2018-03-11T03:56:28.092Z,1.30
2018-03-11T03:58:57.964Z,1.20
2018-03-11T04:01:28.589Z,1.40
2018-03-11T04:03:58.632Z,1.50
2018-03-11T04:06:28.672Z,1.60
2018-03-11T04:08:58.710Z,1.30
2018-03-11T04:11:29.487Z,1.43
2018-03-11T04:13:59.702Z,1.63
2018-03-11T04:16:29.929Z,1.30
2018-03-11T04:18:59.965Z,1.67
2018-03-11T04:21:30.008Z,1.23
2018-03-11T04:24:00.233Z,0.90
2018-03-11T04:26:30.289Z,1.40
2018-03-11T04:29:01.105Z,1.40
2018-03-11T04:31:31.613Z,1.20
2018-03-11T04:34:01.644Z,1.50
2018-03-11T04:36:31.722Z,1.53
2018-03-11T04:39:02.028Z,1.57
2018-03-11T04:41:32.247Z,1.33
2018-03-11T04:44:02.764Z,1.60
2018-03-11T04:46:32.988Z,1.40
2018-03-11T04:49:03.025Z,1.30
2018-03-11T04:51:33.629Z,1.50
2018-03-11T04:54:04.026Z,1.50
2018-03-11T04:56:35.033Z,1.57
2018-03-11T04:59:05.485Z,1.40
2018-03-11T05:01:35.523Z,1.50
2018-03-11T05:04:07.039Z,1.20
2018-03-11T05:06:37.134Z,1.60
2018-03-11T05:09:10.593Z,1.50
2018-03-11T05:11:40.898Z,1.67
2018-03-11T05:14:13.273Z,1.43
2018-03-11T05:16:43.305Z,1.60
2018-03-11T05:19:14.721Z,1.63
2018-03-11T05:21:46.163Z,1.50
2018-03-11T05:24:17.126Z,1.80
2018-03-11T05:26:47.622Z,1.83
2018-03-11T05:29:17.737Z,1.90
2018-03-11T05:31:47.844Z,1.33
2018-03-11T05:34:18.656Z,1.57
2018-03-11T05:36:48.542Z,1.43
2018-03-11T05:39:19.548Z,1.77
2018-03-11T05:41:52.208Z,1.47
2018-03-11T05:44:22.541Z,1.43
2018-03-11T05:46:52.668Z,1.60
2018-03-11T05:49:23.710Z,1.60
2018-03-11T05:51:56.200Z,1.30
2018-03-11T05:54:26.703Z,1.40
2018-03-11T05:56:56.933Z,1.40
2018-03-11T05:59:27.170Z,1.30
2018-03-11T06:01:57.509Z,1.30
2018-03-11T06:04:27.656Z,1.40
2018-03-11T06:06:57.879Z,1.27
2018-03-11T06:09:28.661Z,1.40
2018-03-11T06:11:59.781Z,1.50
2018-03-11T06:14:29.824Z,1.40
2018-03-11T06:17:00.697Z,1.10
2018-03-11T06:19:31.973Z,1.10
2018-03-11T06:22:02.950Z,1.27
2018-03-11T06:24:33.032Z,1.00
2018-03-11T06:27:03.067Z,1.00
2018-03-11T06:29:33.091Z,1.50
2018-03-11T06:32:03.136Z,1.50
2018-03-11T06:34:33.151Z,1.57
2018-03-11T06:37:04.034Z,1.10
2018-03-11T06:39:34.500Z,1.47
2018-03-11T06:42:04.558Z,1.23
2018-03-11T06:44:34.576Z,1.23
2018-03-11T06:47:04.797Z,1.03
2018-03-11T06:49:35.583Z,1.20
2018-03-11T06:52:05.829Z,1.00
2018-03-11T06:54:35.934Z,1.20
2018-03-11T06:57:06.201Z,1.00
2018-03-11T06:59:37.272Z,1.50
2018-03-11T07:02:07.384Z,1.70
2018-03-11T07:04:37.643Z,1.70
2018-03-11T07:07:07.928Z,1.60
2018-03-11T07:09:38.961Z,1.47
2018-03-11T07:12:09.301Z,1.30
2018-03-11T07:14:39.602Z,1.50
2018-03-11T07:17:09.736Z,1.40
2018-03-11T07:19:39.813Z,1.63
2018-03-11T07:22:10.562Z,1.37
2018-03-11T07:24:40.784Z,1.43
2018-03-11T07:27:10.845Z,1.60
2018-03-11T07:29:41.823Z,1.10
2018-03-11T07:32:12.183Z,1.23
2018-03-11T07:34:42.970Z,1.53
2018-03-11T07:37:12.996Z,1.37
2018-03-11T07:39:43.047Z,1.30
2018-03-11T07:42:13.270Z,1.50
2018-03-11T07:44:43.603Z,1.60
2018-03-11T07:47:13.339Z,1.50
2018-03-11T07:49:44.329Z,1.63
2018-03-11T07:52:14.516Z,1.80
2018-03-11T07:54:44.582Z,1.60
2018-03-11T07:57:15.076Z,2.20
2018-03-11T07:59:44.798Z,2.10
2018-03-11T08:02:14.875Z,1.30
2018-03-11T08:04:46.083Z,1.30
2018-03-11T08:07:16.152Z,1.30
2018-03-11T08:09:46.215Z,1.30
2018-03-11T08:12:16.559Z,1.13
2018-03-11T08:14:46.593Z,1.20
2018-03-11T08:17:16.820Z,1.00
2018-03-11T08:19:46.862Z,1.10
2018-03-11T08:22:17.602Z,0.83
2018-03-11T08:24:47.950Z,1.10
2018-03-11T08:27:18.452Z,0.93
2018-03-11T08:29:48.526Z,1.10
2018-03-11T08:32:18.581Z,1.07
2018-03-11T08:34:48.631Z,0.83
2018-03-11T08:37:18.708Z,0.93
2018-03-11T08:39:49.514Z,0.60
2018-03-11T08:42:19.587Z,0.70
2018-03-11T08:44:49.610Z,0.87
2018-03-11T08:47:21.566Z,0.67
2018-03-11T08:49:53.332Z,0.83
2018-03-11T08:52:24.131Z,0.90
2018-03-11T08:54:55.120Z,0.70
2018-03-11T08:57:25.239Z,0.93
2018-03-11T08:59:55.437Z,0.60
2018-03-11T09:02:25.920Z,0.90
2018-03-11T09:04:56.999Z,0.83
2018-03-11T09:07:27.380Z,0.90
2018-03-11T09:09:58.977Z,0.97
2018-03-11T09:12:29.452Z,0.80
2018-03-11T09:14:59.961Z,0.80
2018-03-11T09:17:30.429Z,0.50
2018-03-11T09:20:00.492Z,0.90
2018-03-11T09:22:30.458Z,0.90
2018-03-11T09:25:00.511Z,0.77
2018-03-11T09:27:30.607Z,0.80
2018-03-11T09:30:00.803Z,0.57
2018-03-11T09:32:31.256Z,0.50
2018-03-11T09:35:01.594Z,0.70
2018-03-11T09:37:31.770Z,0.60
2018-03-11T09:40:01.872Z,0.67
2018-03-11T09:42:31.747Z,0.70
2018-03-11T09:45:02.080Z,0.70
2018-03-11T09:47:32.228Z,0.53
2018-03-11T09:50:03.254Z,0.60
2018-03-11T09:52:33.669Z,0.60
2018-03-11T09:55:03.696Z,0.80
2018-03-11T09:57:33.978Z,0.70
2018-03-11T10:00:04.508Z,0.47
2018-03-11T10:02:34.566Z,0.60
2018-03-11T10:05:04.556Z,0.70
2018-03-11T10:07:34.725Z,0.50
2018-03-11T10:10:05.287Z,0.73
2018-03-11T10:12:35.554Z,0.70
2018-03-11T10:15:05.299Z,0.80
2018-03-11T10:17:35.787Z,0.67
2018-03-11T10:20:05.448Z,0.60
2018-03-11T10:22:35.984Z,0.90
2018-03-11T10:25:06.991Z,0.60
2018-03-11T10:27:37.000Z,0.77
2018-03-11T10:30:06.970Z,0.70
2018-03-11T10:32:39.566Z,0.80
2018-03-11T10:35:09.617Z,0.60
2018-03-11T10:37:41.520Z,1.00
2018-03-11T10:40:11.577Z,0.93
2018-03-11T10:42:41.639Z,0.80
2018-03-11T10:45:12.534Z,0.83
2018-03-11T10:47:43.044Z,0.53
2018-03-11T10:50:14.153Z,0.70
2018-03-11T10:52:44.211Z,0.73
2018-03-11T10:55:14.617Z,0.70
2018-03-11T10:57:44.669Z,0.73
2018-03-11T11:00:14.627Z,0.60
2018-03-11T11:02:44.863Z,1.10
2018-03-11T11:05:14.921Z,1.00
2018-03-11T11:07:44.982Z,1.10
2018-03-11T11:10:15.046Z,0.90
2018-03-11T11:12:45.883Z,1.20
2018-03-11T11:15:16.499Z,1.17
2018-03-11T11:17:47.129Z,1.02
2018-03-11T11:20:17.757Z,1.00
2018-03-11T11:22:49.276Z,1.20
2018-03-11T11:25:20.132Z,1.20
2018-03-11T11:27:50.729Z,1.10
2018-03-11T11:30:21.620Z,0.90
2018-03-11T11:32:53.014Z,1.25
2018-03-11T11:35:23.837Z,0.90
2018-03-11T11:37:54.444Z,0.98
2018-03-11T11:40:26.118Z,1.12
2018-03-11T11:42:56.742Z,1.27
2018-03-11T11:45:27.626Z,1.58
2018-03-11T11:47:58.267Z,1.20
2018-03-11T11:50:29.723Z,1.30
2018-03-11T11:53:00.466Z,2.35
2018-03-11T11:55:31.065Z,1.73
2018-03-11T11:58:01.683Z,1.50
2018-03-11T12:00:32.512Z,1.65
2018-03-11T12:03:03.326Z,1.73
2018-03-11T12:05:34.200Z,1.50
2018-03-11T12:08:05.010Z,1.73
2018-03-11T12:10:35.634Z,1.70
2018-03-11T12:13:06.255Z,2.00
2018-03-11T12:15:36.838Z,1.60
2018-03-11T12:18:07.483Z,1.35
2018-03-11T12:20:39.672Z,1.30
2018-03-11T12:23:11.068Z,1.40
2018-03-11T12:25:41.710Z,1.30
2018-03-11T12:28:12.865Z,1.30
2018-03-11T12:30:43.810Z,1.27
2018-03-11T12:33:14.695Z,1.40
2018-03-11T12:35:46.042Z,1.30
2018-03-11T12:38:16.801Z,1.15
2018-03-11T12:40:47.405Z,1.30
2018-03-11T12:43:18.043Z,1.10
2018-03-11T12:45:48.662Z,1.10
2018-03-11T12:48:20.360Z,1.25
2018-03-11T12:50:51.029Z,1.20
2018-03-11T12:53:21.646Z,1.48
2018-03-11T12:55:52.007Z,1.12
2018-03-11T12:58:22.588Z,1.40
2018-03-11T13:00:54.177Z,1.40
2018-03-11T13:03:25.560Z,1.40
2018-03-11T13:05:55.611Z,1.55
2018-03-11T13:08:26.238Z,1.35
2018-03-11T13:10:56.579Z,1.40
2018-03-11T13:13:26.824Z,1.50
2018-03-11T13:15:57.077Z,1.20
2018-03-11T13:18:27.770Z,1.40
2018-03-11T13:21:12.458Z,1.50
2018-03-11T13:23:43.504Z,1.50
2018-03-11T13:26:13.562Z,1.33
2018-03-11T13:28:48.473Z,2.47
2018-03-11T13:31:18.623Z,1.97
2018-03-11T13:47:35.971Z,2.60
2018-03-11T13:50:05.985Z,2.50
2018-03-11T13:52:52.740Z,2.40
2018-03-11T13:58:43.036Z,2.13
2018-03-11T14:04:45.134Z,2.30
2018-03-11T14:07:16.943Z,2.27
2018-03-11T14:09:48.495Z,2.57
2018-03-11T14:12:43.066Z,2.10
2018-03-11T14:15:18.213Z,2.73
2018-03-11T14:17:48.295Z,2.30
2018-03-11T14:20:18.890Z,2.30
2018-03-11T14:23:15.861Z,2.00
2018-03-11T14:35:07.513Z,1.90
2018-03-11T14:37:37.635Z,2.23
2018-03-11T14:46:21.981Z,2.37
2018-03-11T14:48:52.325Z,2.03
2018-03-11T14:51:22.431Z,2.40
2018-03-11T14:53:53.318Z,2.40
2018-03-11T14:56:45.010Z,2.13
2018-03-11T14:59:16.393Z,2.23
2018-03-11T15:02:13.671Z,2.50
2018-03-11T15:11:54.638Z,4.97
2018-03-11T15:20:25.484Z,2.60
2018-03-11T15:26:09.494Z,2.60
2018-03-11T15:28:39.869Z,2.90
2018-03-11T15:34:17.245Z,2.07
2018-03-11T15:36:50.034Z,2.43
2018-03-11T15:39:21.312Z,2.90
2018-03-11T15:44:59.434Z,2.37
2018-03-11T16:00:09.063Z,2.00
2018-03-11T16:02:38.811Z,2.23
2018-03-11T16:05:33.653Z,2.20
2018-03-11T16:08:03.727Z,2.50
2018-03-11T16:10:33.821Z,2.70
2018-03-11T16:13:16.473Z,2.47
2018-03-11T16:15:52.833Z,2.30
2018-03-11T16:18:43.381Z,2.20
2018-03-11T16:27:07.701Z,2.00
2018-03-11T16:29:45.338Z,1.90
2018-03-11T16:32:18.645Z,2.10
2018-03-11T16:34:50.280Z,2.53
2018-03-11T16:37:21.884Z,2.40
2018-03-11T16:39:51.986Z,2.17
2018-03-11T16:42:22.314Z,2.00
2018-03-11T16:44:52.579Z,2.07
2018-03-11T16:47:22.901Z,1.70
2018-03-11T16:49:52.975Z,1.50
2018-03-11T16:52:23.022Z,1.73
2018-03-11T16:54:53.658Z,1.70
2018-03-11T16:57:24.532Z,1.63
2018-03-11T16:59:55.454Z,1.53
2018-03-11T17:02:25.500Z,1.50
2018-03-11T17:04:57.051Z,1.40
2018-03-11T17:07:26.929Z,1.13
2018-03-11T17:09:56.962Z,0.90
2018-03-11T17:12:28.920Z,1.10
2018-03-11T17:15:00.041Z,1.10
2018-03-11T17:17:31.666Z,1.10
2018-03-11T17:20:01.502Z,1.40
2018-03-11T17:22:31.768Z,1.10
2018-03-11T17:25:01.857Z,1.00
2018-03-11T17:27:34.845Z,1.20
2018-03-11T17:30:04.178Z,0.80
2018-03-11T17:32:37.736Z,0.97
2018-03-11T17:35:10.456Z,1.00
2018-03-11T17:37:40.506Z,1.00
2018-03-11T17:40:10.579Z,0.70
2018-03-11T17:42:41.528Z,1.10
2018-03-11T17:45:13.364Z,0.90
2018-03-11T17:47:44.093Z,0.80
2018-03-11T17:50:14.126Z,1.07
2018-03-11T17:52:44.394Z,0.80
2018-03-11T17:55:15.407Z,0.90
2018-03-11T17:57:45.670Z,1.00
2018-03-11T18:00:16.032Z,0.70
2018-03-11T18:02:46.335Z,1.07
2018-03-11T18:05:16.400Z,1.20
2018-03-11T18:07:46.706Z,1.27
2018-03-11T18:10:17.600Z,1.30
2018-03-11T18:12:47.676Z,1.37
2018-03-11T18:15:17.724Z,1.00
2018-03-11T18:17:48.543Z,1.30
2018-03-11T18:20:19.526Z,1.30
2018-03-11T18:22:49.783Z,1.20
2018-03-11T18:25:21.048Z,1.53
2018-03-11T18:27:51.311Z,1.40
2018-03-11T18:30:21.347Z,1.50
2018-03-11T18:32:51.587Z,1.50
2018-03-11T18:35:21.643Z,9.07
2018-03-11T18:37:51.880Z,8.03
2018-03-11T18:40:21.929Z,2.17
2018-03-11T18:42:51.983Z,2.30
2018-03-11T18:45:21.695Z,15.13
2018-03-11T18:47:52.382Z,10.33
2018-03-11T18:50:22.461Z,11.97
2018-03-11T18:52:52.625Z,9.77
2018-03-11T18:55:24.168Z,4.27
2018-03-11T18:57:54.222Z,3.00
2018-03-11T19:00:26.311Z,2.93
2018-03-11T19:02:57.203Z,2.37
2018-03-11T19:05:27.402Z,3.30
2018-03-11T19:07:57.801Z,3.60
2018-03-11T19:10:27.867Z,5.03
2018-03-11T19:12:57.926Z,6.53
2018-03-11T19:15:27.994Z,7.03
2018-03-11T19:17:58.521Z,6.07
2018-03-11T19:20:28.919Z,6.90
2018-03-11T19:22:59.743Z,7.20
2018-03-11T19:25:31.354Z,8.20
2018-03-11T19:28:02.426Z,8.73
2018-03-11T19:30:32.998Z,8.40
2018-03-11T19:33:04.842Z,8.13
2018-03-11T19:35:34.929Z,7.60
2018-03-11T19:38:06.312Z,7.70
2018-03-11T19:40:36.713Z,6.20
2018-03-11T19:43:08.050Z,5.87
2018-03-11T19:45:38.487Z,5.77
2018-03-11T19:48:08.668Z,5.17
2018-03-11T19:50:38.811Z,5.27
2018-03-11T19:53:11.675Z,5.07
2018-03-11T19:55:42.105Z,4.83
2018-03-11T19:58:12.398Z,4.80
2018-03-11T20:00:43.024Z,4.57
2018-03-11T20:03:13.932Z,4.17
2018-03-11T20:05:44.669Z,4.77
2018-03-11T20:08:14.763Z,4.03
2018-03-11T20:10:45.056Z,4.17
2018-03-11T20:13:15.608Z,4.30
2018-03-11T20:15:45.695Z,4.33
2018-03-11T20:18:18.209Z,3.97
2018-03-11T20:20:49.699Z,4.27
2018-03-11T20:23:19.796Z,4.20
2018-03-11T20:25:50.116Z,3.57
2018-03-11T20:28:21.899Z,3.57
2018-03-11T20:30:51.992Z,3.23
2018-03-11T20:33:22.053Z,3.77
2018-03-11T20:35:52.118Z,3.60
2018-03-11T20:38:22.675Z,3.67
2018-03-11T20:40:53.479Z,3.37
2018-03-11T20:43:23.561Z,4.17
2018-03-11T20:45:53.907Z,3.20
2018-03-11T20:48:25.941Z,2.90
2018-03-11T20:50:56.053Z,2.80
2018-03-11T20:53:26.922Z,2.70
2018-03-11T20:55:57.732Z,2.60
2018-03-11T20:58:29.810Z,2.33
2018-03-11T21:00:59.892Z,2.27
2018-03-11T21:03:29.949Z,2.33
2018-03-11T21:06:02.457Z,2.10
2018-03-11T21:08:32.503Z,1.80
2018-03-11T21:11:04.478Z,1.50
2018-03-11T21:13:34.556Z,1.50
2018-03-11T21:16:04.472Z,1.10
2018-03-11T21:18:35.170Z,0.97
2018-03-11T21:21:05.483Z,1.13
2018-03-11T21:23:35.563Z,1.37
2018-03-11T21:26:06.003Z,1.53
2018-03-11T21:28:36.948Z,1.13
2018-03-11T21:31:06.354Z,1.30
2018-03-11T21:33:37.259Z,1.17
2018-03-11T21:36:07.304Z,0.90
2018-03-11T21:38:37.341Z,1.00
2018-03-11T21:41:07.196Z,1.30
2018-03-11T21:43:37.257Z,1.10
2018-03-11T21:46:07.017Z,1.00
2018-03-11T21:48:37.109Z,1.17
2018-03-11T21:51:07.323Z,1.10
2018-03-11T21:53:37.339Z,0.93
2018-03-11T21:56:07.823Z,1.00
2018-03-11T21:58:38.839Z,0.90
2018-03-11T22:01:08.906Z,0.80
2018-03-11T22:03:41.060Z,1.00
2018-03-11T22:06:11.398Z,0.90
2018-03-11T22:08:42.474Z,1.10
2018-03-11T22:11:12.553Z,0.90
2018-03-11T22:13:43.612Z,0.67
2018-03-11T22:16:14.540Z,0.83
2018-03-11T22:18:45.928Z,0.97
2018-03-11T22:21:15.849Z,0.90
2018-03-11T22:23:47.203Z,1.27
2018-03-11T22:26:17.172Z,0.90
2018-03-11T22:28:47.486Z,0.70
2018-03-11T22:31:17.600Z,1.00
2018-03-11T22:33:47.911Z,0.80
2018-03-11T22:36:18.944Z,1.10
2018-03-11T22:38:49.788Z,1.20
2018-03-11T22:41:20.523Z,1.00
2018-03-11T22:43:50.692Z,1.10
2018-03-11T22:46:22.358Z,1.10
2018-03-11T22:48:53.748Z,1.20
2018-03-11T22:51:24.701Z,1.00
2018-03-11T22:53:54.911Z,1.20
2018-03-11T22:56:24.943Z,0.73
2018-03-11T22:58:55.169Z,1.00
2018-03-11T23:01:24.954Z,1.00
2018-03-11T23:03:56.033Z,0.80
2018-03-11T23:06:28.563Z,1.10
2018-03-11T23:08:58.651Z,0.87
2018-03-11T23:11:29.195Z,1.03
2018-03-11T23:14:00.060Z,0.93
2018-03-11T23:16:30.116Z,1.03
2018-03-11T23:19:16.685Z,1.00
2018-03-11T23:21:47.339Z,1.23
2018-03-11T23:24:17.719Z,0.80
2018-03-11T23:26:47.882Z,0.90
2018-03-11T23:29:17.929Z,1.00
2018-03-11T23:31:48.020Z,1.00
2018-03-11T23:34:18.082Z,0.90
2018-03-11T23:36:48.884Z,0.83
2018-03-11T23:39:19.156Z,0.87
2018-03-11T23:41:49.400Z,0.70
2018-03-11T23:44:19.421Z,0.77
2018-03-11T23:46:51.298Z,1.00
2018-03-11T23:49:21.325Z,0.70
2018-03-11T23:51:52.310Z,0.90
2018-03-11T23:54:23.585Z,0.73
2018-03-11T23:56:53.990Z,0.87
2018-03-11T23:59:24.245Z,1.00
